Time;durP1;ratioP1;P1;durP2;ratioP2;P2;SDS_P1;SDS_P2;PMS_P1;PMS_P2;Temp;Humidity;BMP_temperature;BMP_pressure;BME280_temperature;BME280_humidity;BME280_pressure;Samples;Min_cycle;Max_cycle;Signal;HPM_P1;HPM_P2
2023/10/01 00:00:05;;;;;;;18.00;9.07;;;;;;;15.58;77.47;95562.28;5002030;28;20372;-77
2023/10/01 00:02:32;;;;;;;20.90;9.30;;;;;;;15.47;78.09;95561.16;5002877;28;20233;-78
2023/10/01 00:04:57;;;;;;;19.40;8.77;;;;;;;15.36;78.28;95566.25;5010667;28;20332;-78
2023/10/01 00:07:23;;;;;;;18.70;8.97;;;;;;;15.49;77.84;95558.31;5008024;28;20299;-78
2023/10/01 00:09:49;;;;;;;20.93;8.40;;;;;;;15.44;77.70;95555.47;4992545;28;20280;-78
2023/10/01 00:12:14;;;;;;;20.77;8.57;;;;;;;15.45;77.86;95554.47;5017244;28;20234;-77
2023/10/01 00:14:40;;;;;;;15.47;8.23;;;;;;;15.59;77.76;95558.63;5027042;28;20234;-77
2023/10/01 00:17:05;;;;;;;16.40;8.83;;;;;;;15.35;78.44;95552.28;5019044;28;20234;-78
2023/10/01 00:19:32;;;;;;;22.00;9.07;;;;;;;15.28;79.21;95548.06;5020153;28;20233;-77
2023/10/01 00:21:58;;;;;;;17.30;8.47;;;;;;;15.39;78.85;95542.91;4986546;28;20238;-78
2023/10/01 00:24:23;;;;;;;22.57;8.93;;;;;;;15.47;78.26;95550.59;5002114;28;20292;-77
2023/10/01 00:26:51;;;;;;;18.53;9.13;;;;;;;15.42;79.11;95553.06;5007069;28;20234;-77
2023/10/01 00:29:17;;;;;;;18.77;9.23;;;;;;;15.19;79.26;95549.34;5000294;28;20223;-78
2023/10/01 00:31:43;;;;;;;25.13;8.97;;;;;;;15.38;78.41;95549.19;5004412;28;20226;-77
2023/10/01 00:34:08;;;;;;;20.03;8.97;;;;;;;15.52;77.53;95552.59;5024511;28;20233;-77
2023/10/01 00:36:35;;;;;;;21.47;8.80;;;;;;;15.15;79.05;95550.78;5017965;28;20234;-78
2023/10/01 00:39:02;;;;;;;20.13;8.90;;;;;;;15.01;80.14;95544.78;5023657;28;20277;-79
2023/10/01 00:41:28;;;;;;;16.20;9.03;;;;;;;15.29;78.83;95554.94;5008251;28;20678;-77
2023/10/01 00:43:55;;;;;;;21.33;8.97;;;;;;;15.06;79.52;95550.22;5011344;28;20230;-78
2023/10/01 00:46:21;;;;;;;21.53;9.10;;;;;;;15.31;78.45;95545.78;4991346;28;20238;-77
2023/10/01 00:48:48;;;;;;;16.83;9.53;;;;;;;15.26;77.51;95545.63;5014436;28;20333;-78
2023/10/01 00:51:14;;;;;;;15.33;8.33;;;;;;;15.34;77.08;95548.03;5022439;28;20622;-77
2023/10/01 00:53:40;;;;;;;15.60;8.50;;;;;;;15.14;77.60;95543.91;5001651;28;20226;-77
2023/10/01 00:56:05;;;;;;;14.40;8.23;;;;;;;15.05;76.86;95555.69;5020315;28;20753;-77
2023/10/01 00:58:31;;;;;;;24.73;8.60;;;;;;;15.01;76.79;95546.59;5014621;28;20225;-76
2023/10/01 01:00:56;;;;;;;18.07;8.27;;;;;;;15.02;76.43;95546.38;5023160;28;20249;-77
2023/10/01 01:03:22;;;;;;;16.67;8.33;;;;;;;15.13;75.87;95550.19;5040775;28;20233;-78
2023/10/01 01:06:05;;;;;;;22.77;8.67;;;;;;;15.08;75.98;95552.63;5000500;28;20616;-71
2023/10/01 01:08:33;;;;;;;21.37;8.63;;;;;;;14.94;76.33;95554.56;5020725;28;20320;-72
2023/10/01 01:11:03;;;;;;;17.63;7.73;;;;;;;15.17;75.38;95548.72;5007272;28;20248;-72
2023/10/01 01:13:30;;;;;;;18.60;8.77;;;;;;;15.21;75.25;95549.94;5008531;28;20226;-72
2023/10/01 01:15:57;;;;;;;16.30;8.70;;;;;;;15.17;75.05;95560.09;5016375;28;20303;-72
2023/10/01 01:18:27;;;;;;;19.43;8.67;;;;;;;15.21;75.14;95550.72;4991393;28;20245;-71
2023/10/01 01:21:08;;;;;;;20.53;8.57;;;;;;;14.99;76.17;95551.28;5015687;28;20234;-72
2023/10/01 01:23:35;;;;;;;19.37;8.53;;;;;;;15.03;75.75;95550.63;5004934;28;20233;-71
2023/10/01 01:26:00;;;;;;;14.27;8.30;;;;;;;15.15;75.07;95548.94;5022917;28;20237;-71
2023/10/01 01:28:30;;;;;;;19.27;8.27;;;;;;;15.08;74.83;95553.47;5006995;28;20805;-71
2023/10/01 01:31:00;;;;;;;15.20;8.27;;;;;;;15.03;75.63;95550.63;5022693;28;20704;-72
2023/10/01 01:33:32;;;;;;;18.47;8.13;;;;;;;15.07;75.61;95553.69;5005972;28;20229;-72
2023/10/01 01:35:58;;;;;;;16.30;7.10;;;;;;;15.01;75.38;95557.13;5023413;28;20775;-72
2023/10/01 01:38:24;;;;;;;16.10;7.17;;;;;;;15.09;75.51;95546.34;5006982;28;20284;-72
2023/10/01 01:40:51;;;;;;;14.83;7.43;;;;;;;14.72;76.58;95548.78;5038659;28;20234;-72
2023/10/01 01:43:22;;;;;;;18.03;7.37;;;;;;;14.73;76.79;95544.31;5019181;28;20222;-72
2023/10/01 01:45:54;;;;;;;17.70;7.67;;;;;;;14.61;77.13;95538.06;4999909;28;20794;-72
2023/10/01 01:50:58;;;;;;;14.97;7.10;;;;;;;14.35;77.83;95543.44;5004146;28;20241;-78
2023/10/01 01:53:34;;;;;;;17.53;7.40;;;;;;;14.32;78.07;95546.47;5001039;28;20233;-78
2023/10/01 01:55:59;;;;;;;11.67;7.23;;;;;;;14.40;78.08;95546.25;5006779;28;20380;-77
2023/10/01 01:58:26;;;;;;;16.80;7.40;;;;;;;14.27;78.23;95541.81;4982617;28;20320;-78
2023/10/01 02:03:37;;;;;;;19.80;7.73;;;;;;;14.22;78.48;95541.63;5003046;28;20236;-78
2023/10/01 02:06:05;;;;;;;17.53;7.13;;;;;;;14.21;78.18;95539.97;5006172;28;20226;-78
2023/10/01 02:08:49;;;;;;;17.90;7.03;;;;;;;14.27;78.41;95536.53;5005952;28;20234;-78
2023/10/01 02:11:23;;;;;;;16.20;7.30;;;;;;;14.30;78.42;95546.69;5000246;28;20349;-78
2023/10/01 02:13:54;;;;;;;15.37;7.10;;;;;;;14.13;78.90;95540.22;5005927;28;20222;-72
2023/10/01 02:18:56;;;;;;;13.60;7.37;;;;;;;14.19;78.50;95542.84;5019232;28;20237;-71
2023/10/01 02:21:42;;;;;;;12.30;6.90;;;;;;;13.99;80.11;95543.91;5000619;28;20226;-71
2023/10/01 02:24:11;;;;;;;13.83;7.30;;;;;;;14.10;80.06;95543.25;4994156;28;20226;-71
2023/10/01 02:26:39;;;;;;;15.93;7.40;;;;;;;14.15;78.88;95540.81;5018925;28;20267;-71
2023/10/01 02:29:05;;;;;;;16.27;7.50;;;;;;;14.08;79.48;95532.13;5038523;28;20225;-72
2023/10/01 02:31:35;;;;;;;14.93;7.40;;;;;;;13.95;80.33;95534.78;5021945;28;20237;-72
2023/10/01 02:34:01;;;;;;;13.50;7.20;;;;;;;14.01;80.19;95539.22;4998009;28;20228;-72
2023/10/01 02:36:30;;;;;;;14.67;7.17;;;;;;;13.96;80.09;95534.59;5015824;28;20720;-71
2023/10/01 02:38:56;;;;;;;12.10;7.50;;;;;;;14.34;78.66;95540.00;5014806;28;20230;-72
2023/10/01 02:41:25;;;;;;;15.53;7.33;;;;;;;14.21;79.33;95533.94;5022577;28;20291;-72
2023/10/01 02:43:55;;;;;;;13.77;6.90;;;;;;;14.03;79.96;95534.56;5006484;28;20279;-72
2023/10/01 02:46:26;;;;;;;18.90;7.63;;;;;;;13.91;80.47;95541.47;5001893;28;20602;-72
2023/10/01 02:48:59;;;;;;;15.87;7.47;;;;;;;13.97;80.40;95535.41;5000174;28;20233;-72
2023/10/01 02:51:32;;;;;;;16.13;7.33;;;;;;;13.91;80.66;95541.47;5001523;28;20309;-72
2023/10/01 02:54:06;;;;;;;17.77;7.80;;;;;;;13.66;82.49;95535.22;5006413;28;20292;-72
2023/10/01 02:56:37;;;;;;;15.50;7.90;;;;;;;13.83;81.68;95537.22;5005166;28;20257;-72
2023/10/01 02:59:08;;;;;;;17.77;7.77;;;;;;;13.74;82.16;95541.06;5005608;28;20257;-71
2023/10/01 03:01:36;;;;;;;15.73;7.87;;;;;;;13.66;83.28;95536.00;5016806;28;20237;-71
2023/10/01 03:04:14;;;;;;;19.73;8.00;;;;;;;13.62;82.53;95531.38;4999058;28;20312;-73
2023/10/01 03:06:52;;;;;;;16.60;8.00;;;;;;;13.55;83.23;95533.19;5002989;28;20230;-73
2023/10/01 03:09:22;;;;;;;13.67;7.80;;;;;;;13.79;82.39;95535.19;5010126;28;20271;-72
2023/10/01 03:11:53;;;;;;;13.70;7.47;;;;;;;13.70;82.19;95539.88;5022457;28;20234;-70
2023/10/01 03:14:26;;;;;;;15.70;7.60;;;;;;;13.70;82.28;95537.25;4999328;28;20222;-78
2023/10/01 03:16:57;;;;;;;19.23;7.83;;;;;;;13.57;82.81;95539.03;4989709;28;20546;-79
2023/10/01 03:19:34;;;;;;;17.47;8.00;;;;;;;13.48;82.90;95536.63;4983219;28;20862;-78
2023/10/01 03:22:15;;;;;;;14.70;7.60;;;;;;;13.65;82.61;95530.97;4997664;28;20236;-79
2023/10/01 03:24:46;;;;;;;16.20;7.83;;;;;;;13.83;81.47;95541.66;4995258;28;20241;-78
2023/10/01 03:27:20;;;;;;;15.00;7.53;;;;;;;13.63;82.00;95543.50;5021920;28;20635;-78
2023/10/01 03:29:48;;;;;;;15.57;7.80;;;;;;;13.78;81.76;95531.75;5003793;28;20665;-78
2023/10/01 03:32:27;;;;;;;15.83;7.53;;;;;;;13.79;81.48;95537.84;5000811;28;20236;-72
2023/10/01 03:34:52;;;;;;;18.37;7.43;;;;;;;13.72;81.96;95544.91;5008204;28;20234;-72
2023/10/01 03:37:45;;;;;;;15.73;7.63;;;;;;;13.79;81.93;95537.84;4992449;28;20656;-71
2023/10/01 03:40:21;;;;;;;16.60;8.57;;;;;;;13.94;80.96;95541.06;5015375;28;20222;-72
2023/10/01 03:42:51;;;;;;;17.13;7.67;;;;;;;13.72;81.82;95544.91;5019056;28;20268;-72
2023/10/01 03:45:37;;;;;;;14.80;7.80;;;;;;;13.83;81.83;95537.22;5007418;28;20229;-71
2023/10/01 03:48:06;;;;;;;16.03;8.07;;;;;;;13.65;82.14;95546.75;5004137;28;20265;-71
2023/10/01 03:50:32;;;;;;;16.93;8.00;;;;;;;13.41;82.92;95542.91;4989654;28;20235;-71
2023/10/01 03:52:59;;;;;;;12.77;7.80;;;;;;;13.63;82.42;95540.88;5015077;28;20275;-72
2023/10/01 03:55:46;;;;;;;18.90;8.30;;;;;;;13.63;82.22;95546.16;5013560;28;20230;-73
2023/10/01 03:58:18;;;;;;;16.90;7.83;;;;;;;13.53;82.86;95538.66;4989460;28;20233;-72
2023/10/01 04:01:03;;;;;;;17.80;8.13;;;;;;;13.54;82.74;95540.28;4996027;28;20291;-73
2023/10/01 04:03:44;;;;;;;13.50;7.57;;;;;;;13.56;82.74;95540.91;4976984;28;20241;-72
2023/10/01 04:06:37;;;;;;;19.77;8.40;;;;;;;13.59;82.29;95551.00;5014193;28;20226;-71
2023/10/01 04:09:06;;;;;;;16.37;7.87;;;;;;;13.75;81.63;95553.22;5009952;28;20230;-71
2023/10/01 04:14:48;;;;;;;14.30;7.97;;;;;;;13.48;83.01;95554.22;4932142;28;20355;-71
2023/10/01 04:17:19;;;;;;;14.53;7.53;;;;;;;13.64;83.02;95548.56;5037460;28;20222;-72
2023/10/01 04:19:49;;;;;;;19.50;7.93;;;;;;;13.65;82.47;95552.00;5038526;28;20233;-78
2023/10/01 04:22:15;;;;;;;20.70;8.80;;;;;;;13.36;83.52;95554.03;5015187;28;20234;-78
2023/10/01 04:24:43;;;;;;;18.23;8.13;;;;;;;12.97;85.07;95556.53;5023224;28;20229;-72
2023/10/01 04:27:23;;;;;;;19.03;8.60;;;;;;;13.14;84.79;95554.38;5024976;28;20222;-72
2023/10/01 04:29:58;;;;;;;18.20;8.50;;;;;;;13.17;84.30;95556.63;5017879;28;20218;-72
2023/10/01 04:32:27;;;;;;;16.53;8.47;;;;;;;13.15;84.32;95562.09;5000647;28;20233;-71
2023/10/01 04:34:56;;;;;;;17.27;8.53;;;;;;;13.16;84.82;95557.66;5000774;28;20254;-73
2023/10/01 04:37:43;;;;;;;19.03;9.07;;;;;;;13.27;84.23;95567.56;5001314;28;20222;-72
2023/10/01 04:40:32;;;;;;;17.43;8.70;;;;;;;13.20;84.67;95561.47;5003763;28;20694;-72
2023/10/01 04:43:15;;;;;;;19.33;8.57;;;;;;;13.50;83.42;95571.44;4985219;28;20242;-72
2023/10/01 04:45:44;;;;;;;20.83;8.67;;;;;;;13.68;82.58;95573.47;5001710;28;20226;-75
2023/10/01 04:48:15;;;;;;;16.13;8.57;;;;;;;13.42;83.35;95573.47;5022496;28;20237;-73
2023/10/01 04:50:42;;;;;;;20.83;9.00;;;;;;;13.09;84.99;95577.81;5005781;28;20230;-74
2023/10/01 04:53:07;;;;;;;18.10;9.27;;;;;;;12.93;86.27;95581.59;4990205;28;20229;-73
2023/10/01 04:55:41;;;;;;;18.00;9.23;;;;;;;13.06;85.64;95586.94;5012403;28;20253;-73
2023/10/01 04:58:12;;;;;;;19.70;9.40;;;;;;;13.42;84.03;95591.88;5004600;28;20238;-73
2023/10/01 05:00:41;;;;;;;17.13;9.00;;;;;;;13.41;84.30;95598.94;5001051;28;20248;-74
2023/10/01 05:03:08;;;;;;;17.60;9.03;;;;;;;13.41;84.04;95592.88;5022617;28;20233;-73
2023/10/01 05:05:36;;;;;;;21.10;9.83;;;;;;;13.73;82.79;95597.31;5009989;28;20237;-73
2023/10/01 05:08:04;;;;;;;22.97;10.03;;;;;;;13.80;82.42;95592.09;5017142;28;20237;-74
2023/10/01 05:10:29;;;;;;;19.43;9.60;;;;;;;13.95;81.87;95600.56;5005084;28;20236;-74
2023/10/01 05:12:58;;;;;;;19.90;10.40;;;;;;;13.85;82.27;95600.19;5005605;28;20230;-73
2023/10/01 05:15:35;;;;;;;19.70;9.93;;;;;;;13.97;81.97;95601.97;5023563;28;20234;-74
2023/10/01 05:18:04;;;;;;;20.10;10.13;;;;;;;14.08;81.35;95600.56;5016655;28;20240;-73
2023/10/01 05:20:30;;;;;;;22.77;10.53;;;;;;;13.78;82.93;95605.44;5000805;28;20831;-73
2023/10/01 05:22:59;;;;;;;23.73;10.30;;;;;;;13.54;84.09;95613.13;5013446;28;20234;-73
2023/10/01 05:25:27;;;;;;;24.33;9.83;;;;;;;13.82;83.49;95613.75;4991180;28;20233;-77
2023/10/01 05:27:55;;;;;;;20.87;10.10;;;;;;;13.94;82.80;95620.03;5016005;28;20801;-77
2023/10/01 05:30:38;;;;;;;21.47;10.13;;;;;;;14.07;82.28;95620.81;4999498;28;20260;-77
2023/10/01 05:33:06;;;;;;;21.67;10.37;;;;;;;14.30;80.58;95617.78;5035320;28;20225;-77
2023/10/01 05:35:41;;;;;;;20.50;9.77;;;;;;;14.45;80.35;95626.25;4980768;28;20233;-77
2023/10/01 05:38:10;;;;;;;19.33;10.37;;;;;;;14.56;79.67;95630.09;5001061;28;20226;-76
2023/10/01 05:40:37;;;;;;;21.07;10.30;;;;;;;14.74;79.33;95620.50;5005285;28;20238;-77
2023/10/01 05:43:13;;;;;;;22.97;10.27;;;;;;;14.91;78.28;95626.13;4997660;28;20310;-78
2023/10/01 05:45:41;;;;;;;17.73;9.70;;;;;;;14.99;77.68;95623.28;5018055;28;20608;-75
2023/10/01 05:48:10;;;;;;;21.40;9.83;;;;;;;15.00;77.88;95622.22;5017500;28;20258;-77
2023/10/01 05:50:41;;;;;;;16.87;9.30;;;;;;;15.19;76.84;95625.81;5006342;28;20736;-77
2023/10/01 05:53:09;;;;;;;22.97;8.80;;;;;;;15.14;76.68;95621.16;4999018;28;20221;-76
2023/10/01 05:55:37;;;;;;;14.63;8.80;;;;;;;15.33;76.57;95616.81;5001653;28;20234;-76
2023/10/01 05:58:13;;;;;;;19.73;8.90;;;;;;;15.54;75.49;95619.16;5002068;28;20230;-77
2023/10/01 06:00:45;;;;;;;19.87;9.00;;;;;;;15.62;75.16;95616.25;5038013;28;20237;-77
2023/10/01 06:03:17;;;;;;;13.97;7.87;;;;;;;15.72;74.74;95623.69;5005637;28;20238;-75
2023/10/01 06:05:49;;;;;;;15.73;7.93;;;;;;;15.70;74.59;95623.09;5012937;28;20797;-76
2023/10/01 06:08:17;;;;;;;18.03;8.00;;;;;;;15.83;74.21;95612.47;5001315;28;20233;-77
2023/10/01 06:11:09;;;;;;;15.40;7.83;;;;;;;15.87;74.08;95611.00;5015212;28;20313;-76
2023/10/01 06:13:38;;;;;;;22.43;7.90;;;;;;;16.04;74.27;95604.97;5015702;28;20222;-77
2023/10/01 06:16:16;;;;;;;19.03;8.13;;;;;;;16.09;74.07;95613.06;4993041;28;20233;-75
2023/10/01 06:19:01;;;;;;;14.27;8.00;;;;;;;16.33;73.76;95614.06;5007402;28;20279;-77
2023/10/01 06:21:28;;;;;;;17.50;8.23;;;;;;;16.44;73.74;95613.34;5004985;28;20619;-76
2023/10/01 06:23:58;;;;;;;18.70;8.60;;;;;;;16.55;73.13;95619.78;5015293;28;20225;-76
2023/10/01 06:26:42;;;;;;;17.57;8.97;;;;;;;16.57;73.46;95615.88;4990681;28;20230;-76
2023/10/01 06:29:08;;;;;;;18.47;8.30;;;;;;;16.69;73.74;95618.63;5004031;28;20221;-71
2023/10/01 06:31:53;;;;;;;16.87;8.60;;;;;;;16.59;73.55;95621.75;4999028;28;20305;-73
2023/10/01 06:34:23;;;;;;;17.13;8.80;;;;;;;16.77;73.75;95627.03;5006899;28;20229;-73
2023/10/01 06:36:56;;;;;;;16.40;9.00;;;;;;;16.85;73.48;95625.94;4993751;28;20625;-73
2023/10/01 06:39:33;;;;;;;15.33;9.20;;;;;;;16.96;73.07;95632.31;5017515;28;20672;-72
2023/10/01 06:44:43;;;;;;;19.37;9.27;;;;;;;17.00;72.75;95629.03;5017090;28;20249;-73
2023/10/01 06:47:14;;;;;;;15.77;9.50;;;;;;;17.01;72.96;95635.91;5000002;28;20246;-73
2023/10/01 06:52:41;;;;;;;17.57;9.40;;;;;;;17.27;72.43;95637.44;5019796;28;20225;-73
2023/10/01 06:55:08;;;;;;;19.30;10.10;;;;;;;17.17;73.18;95637.97;5000636;28;20324;-73
2023/10/01 06:57:33;;;;;;;17.70;9.70;;;;;;;17.32;72.83;95638.38;5014866;28;20260;-73
2023/10/01 06:59:59;;;;;;;16.77;9.90;;;;;;;17.41;72.88;95642.34;4998549;28;20325;-73
2023/10/01 07:02:26;;;;;;;17.17;9.77;;;;;;;17.53;72.85;95644.28;5003923;28;20329;-73
2023/10/01 07:04:56;;;;;;;19.97;9.77;;;;;;;17.57;72.61;95648.88;5005673;28;20218;-72
2023/10/01 07:07:26;;;;;;;17.07;9.97;;;;;;;17.53;73.35;95641.63;4994341;28;20279;-71
2023/10/01 07:09:56;;;;;;;19.97;9.83;;;;;;;17.61;72.93;95643.94;5025187;28;20279;-72
2023/10/01 07:12:23;;;;;;;19.60;10.13;;;;;;;17.63;73.42;95647.16;5008730;28;20227;-72
2023/10/01 07:14:50;;;;;;;15.70;9.97;;;;;;;17.76;72.83;95647.00;5008476;28;20610;-71
2023/10/01 07:17:19;;;;;;;19.47;10.23;;;;;;;17.71;72.87;95642.38;5042912;28;20214;-72
2023/10/01 07:19:59;;;;;;;20.17;9.73;;;;;;;17.78;72.96;95644.91;5004452;28;20308;-73
2023/10/01 07:22:38;;;;;;;16.23;9.87;;;;;;;17.87;73.07;95646.19;4996347;28;20225;-73
2023/10/01 07:25:04;;;;;;;21.10;9.80;;;;;;;17.90;72.97;95645.75;4990222;28;20253;-73
2023/10/01 07:27:30;;;;;;;17.50;9.80;;;;;;;17.96;72.91;95642.22;5001546;28;20222;-72
2023/10/01 07:29:56;;;;;;;18.57;9.90;;;;;;;17.96;72.77;95644.88;5020413;28;20231;-72
2023/10/01 07:32:24;;;;;;;24.50;10.70;;;;;;;18.03;73.17;95646.34;5000796;28;20230;-72
2023/10/01 07:34:58;;;;;;;22.80;10.47;;;;;;;18.15;73.00;95651.66;5019813;28;20226;-73
2023/10/01 07:37:25;;;;;;;23.00;10.60;;;;;;;18.20;72.83;95651.00;5018427;28;20241;-73
2023/10/01 07:40:01;;;;;;;23.17;10.43;;;;;;;18.27;73.14;95649.06;5020327;28;20619;-72
2023/10/01 07:42:27;;;;;;;23.03;10.23;;;;;;;18.36;72.40;95650.31;5008216;28;20722;-72
2023/10/01 07:44:53;;;;;;;20.87;10.63;;;;;;;18.43;72.34;95649.19;5015649;28;20226;-73
2023/10/01 07:47:28;;;;;;;25.43;10.60;;;;;;;18.62;72.65;95661.31;4994770;28;20229;-73
2023/10/01 07:49:56;;;;;;;21.13;11.00;;;;;;;18.51;72.45;95654.16;5038774;28;20230;-72
2023/10/01 07:52:23;;;;;;;21.27;10.50;;;;;;;18.55;71.72;95651.88;4990588;28;20317;-74
2023/10/01 07:54:49;;;;;;;25.30;11.30;;;;;;;18.60;71.99;95654.63;5017335;28;20234;-72
2023/10/01 07:57:27;;;;;;;23.17;10.63;;;;;;;18.74;72.19;95651.50;5017283;28;20267;-73
2023/10/01 07:59:53;;;;;;;20.67;11.23;;;;;;;18.87;71.17;95653.09;5008898;28;20767;-73
2023/10/01 08:07:17;;;;;;;23.07;11.07;;;;;;;19.07;70.70;95656.19;5018715;28;20282;-73
2023/10/01 08:09:47;;;;;;;24.47;11.27;;;;;;;19.06;70.75;95662.53;5003592;28;20330;-73
2023/10/01 08:12:13;;;;;;;24.13;11.53;;;;;;;19.09;70.24;95648.81;5024675;28;21048;-72
2023/10/01 08:14:40;;;;;;;23.60;11.87;;;;;;;19.22;70.46;95647.75;5000336;28;20314;-73
2023/10/01 08:17:07;;;;;;;28.90;11.23;;;;;;;19.34;70.83;95662.59;5023892;28;20248;-73
2023/10/01 08:19:45;;;;;;;28.40;11.13;;;;;;;19.33;70.20;95657.50;5000230;28;20222;-72
2023/10/01 08:22:14;;;;;;;22.70;11.47;;;;;;;19.44;70.60;95652.19;4994049;28;20880;-71
2023/10/01 08:24:45;;;;;;;20.10;10.73;;;;;;;19.48;70.58;95652.53;5017562;28;20230;-71
2023/10/01 08:27:29;;;;;;;23.43;11.80;;;;;;;19.66;70.92;95647.03;5000151;28;20323;-71
2023/10/01 08:32:41;;;;;;;25.40;11.97;;;;;;;19.66;71.58;95648.88;5020421;28;20701;-74
2023/10/01 08:35:07;;;;;;;23.73;12.00;;;;;;;19.70;71.22;95650.84;5025302;28;20711;-72
2023/10/01 08:37:37;;;;;;;28.30;11.33;;;;;;;19.88;70.67;95652.47;5015654;28;20230;-71
2023/10/01 08:40:13;;;;;;;25.47;11.30;;;;;;;19.87;70.05;95651.66;5019615;28;20273;-73
2023/10/01 08:42:47;;;;;;;22.53;11.60;;;;;;;19.96;69.91;95652.91;5011078;28;20221;-75
2023/10/01 08:45:17;;;;;;;24.23;11.47;;;;;;;20.00;70.15;95650.56;5001675;28;20265;-72
2023/10/01 08:47:45;;;;;;;23.00;11.17;;;;;;;20.08;69.01;95650.16;5001142;28;20724;-73
2023/10/01 08:52:52;;;;;;;25.40;11.20;;;;;;;20.17;67.54;95657.50;5016635;28;20990;-72
2023/10/01 08:55:35;;;;;;;24.60;10.80;;;;;;;20.25;68.94;95645.69;5000365;28;20829;-71
2023/10/01 09:00:49;;;;;;;26.60;11.20;;;;;;;20.52;68.92;95643.16;5018495;28;20237;-72
2023/10/01 09:03:26;;;;;;;21.27;11.17;;;;;;;20.53;67.48;95642.13;5000904;28;20309;-72
2023/10/01 09:06:03;;;;;;;23.30;11.50;;;;;;;20.60;67.48;95640.09;5017129;28;20312;-72
2023/10/01 09:08:31;;;;;;;24.63;10.57;;;;;;;20.72;65.77;95638.97;5023045;28;20231;-72
2023/10/01 09:10:59;;;;;;;22.77;10.60;;;;;;;20.74;66.07;95652.00;5003107;28;20284;-72
2023/10/01 09:13:26;;;;;;;21.57;10.57;;;;;;;20.78;64.86;95650.47;4991416;28;20775;-73
2023/10/01 09:15:55;;;;;;;22.83;10.47;;;;;;;20.89;64.25;95638.94;5005962;28;20249;-73
2023/10/01 09:18:25;;;;;;;21.03;10.10;;;;;;;20.96;63.43;95650.19;4991318;28;20291;-73
2023/10/01 09:21:06;;;;;;;25.67;10.20;;;;;;;21.01;64.29;95642.28;5006803;28;20738;-73
2023/10/01 09:23:56;;;;;;;23.23;10.13;;;;;;;21.24;63.96;95647.41;5020720;28;20257;-73
2023/10/01 09:26:39;;;;;;;19.57;10.13;;;;;;;21.30;62.15;95650.94;5021859;28;20234;-73
2023/10/01 09:29:14;;;;;;;19.40;9.93;;;;;;;21.37;62.42;95649.66;5022930;28;20226;-72
2023/10/01 09:31:52;;;;;;;22.87;10.10;;;;;;;21.37;61.38;95655.00;5006620;28;20287;-74
2023/10/01 09:34:31;;;;;;;20.50;9.23;;;;;;;21.41;60.81;95658.78;5006318;28;20221;-73
2023/10/01 09:37:33;;;;;;;21.40;9.33;;;;;;;21.37;60.26;95656.88;5007142;28;20318;-73
2023/10/01 09:42:56;;;;;;;22.47;9.97;;;;;;;21.36;58.68;95661.41;5003402;28;20318;-73
2023/10/01 09:45:27;;;;;;;17.83;9.20;;;;;;;21.46;57.51;95656.19;5019710;28;20704;-73
2023/10/01 09:48:07;;;;;;;20.17;9.97;;;;;;;21.58;57.60;95649.91;5008014;28;20317;-73
2023/10/01 09:50:41;;;;;;;20.13;11.20;;;;;;;21.78;57.68;95656.25;5005415;28;20799;-72
2023/10/01 09:53:14;;;;;;;23.03;11.40;;;;;;;21.89;58.10;95649.22;5009165;28;20308;-73
2023/10/01 09:55:47;;;;;;;28.70;13.00;;;;;;;21.91;57.84;95652.44;5023798;28;20269;-72
2023/10/01 09:58:25;;;;;;;27.57;12.70;;;;;;;21.73;57.56;95652.75;5001116;28;20224;-72
2023/10/01 10:00:55;;;;;;;24.80;12.50;;;;;;;21.74;56.73;95646.34;5014312;28;20226;-73
2023/10/01 10:03:21;;;;;;;21.47;10.77;;;;;;;21.84;55.67;95643.78;4990031;28;20226;-73
2023/10/01 10:05:47;;;;;;;20.50;11.30;;;;;;;21.95;56.37;95648.19;5005276;28;20233;-72
2023/10/01 10:08:15;;;;;;;24.20;12.33;;;;;;;22.03;57.11;95642.41;5022543;28;20218;-72
2023/10/01 10:10:48;;;;;;;23.77;12.35;;;;;;;22.11;56.74;95637.41;5015980;28;20229;-73
2023/10/01 10:13:36;;;;;;;27.13;12.83;;;;;;;22.22;57.94;95634.84;4990466;28;20935;-72
2023/10/01 10:16:56;;;;;;;22.97;12.17;;;;;;;22.49;56.58;95631.06;5005583;28;20273;-72
2023/10/01 10:19:21;;;;;;;22.03;11.20;;;;;;;22.40;56.20;95631.78;5001594;28;20233;-72
2023/10/01 10:24:31;;;;;;;24.30;10.63;;;;;;;22.53;55.00;95620.66;5023376;28;20222;-73
2023/10/01 10:27:01;;;;;;;17.40;9.77;;;;;;;22.60;54.86;95613.25;5020858;28;20618;-72
2023/10/01 10:30:00;;;;;;;19.60;9.70;;;;;;;22.70;54.79;95610.66;4989126;28;20275;-72
2023/10/01 10:32:30;;;;;;;24.55;10.70;;;;;;;22.90;53.98;95607.31;5022951;28;20567;-71
2023/10/01 10:35:04;;;;;;;21.75;10.85;;;;;;;22.91;55.13;95608.91;4999717;28;20316;-72
2023/10/01 10:37:43;;;;;;;20.05;9.82;;;;;;;23.04;53.64;95609.25;5026257;28;20721;-72
2023/10/01 10:42:38;;;;;;;17.17;10.07;;;;;;;23.02;53.64;95607.91;5020544;28;20222;-73
2023/10/01 10:45:20;;;;;;;19.45;10.48;;;;;;;23.00;54.06;95602.03;5009377;28;21218;-72
2023/10/01 10:48:01;;;;;;;20.10;10.13;;;;;;;22.92;54.06;95600.66;5042090;28;20226;-73
2023/10/01 10:50:44;;;;;;;22.95;10.30;;;;;;;22.85;54.15;95593.94;5005244;28;20933;-73
2023/10/01 10:53:20;;;;;;;20.73;10.18;;;;;;;22.66;54.16;95589.00;5025625;28;20288;-73
2023/10/01 10:56:08;;;;;;;18.27;9.65;;;;;;;22.83;54.50;95591.53;5009000;28;20240;-72
2023/10/01 10:58:53;;;;;;;17.02;9.57;;;;;;;23.26;53.63;95587.72;5007355;28;20253;-73
2023/10/01 11:01:19;;;;;;;17.63;9.75;;;;;;;23.60;52.53;95577.38;5010195;28;20676;-73
2023/10/01 11:03:55;;;;;;;21.48;9.70;;;;;;;23.84;51.98;95584.66;5002814;28;20248;-71
2023/10/01 11:06:22;;;;;;;21.20;9.93;;;;;;;23.94;51.38;95579.31;5009716;28;20245;-72
2023/10/01 11:08:53;;;;;;;20.88;10.45;;;;;;;24.02;51.36;95572.66;5018681;28;20229;-73
2023/10/01 11:11:25;;;;;;;20.45;10.85;;;;;;;23.90;51.47;95578.25;5041514;28;20242;-72
2023/10/01 11:14:00;;;;;;;22.20;10.77;;;;;;;23.93;51.22;95569.69;5023810;28;20249;-72
2023/10/01 11:16:36;;;;;;;21.20;11.15;;;;;;;23.95;51.41;95566.75;5021181;28;20260;-73
2023/10/01 11:19:12;;;;;;;20.10;10.93;;;;;;;24.12;50.99;95566.53;5020579;28;20237;-72
2023/10/01 11:22:00;;;;;;;25.38;11.13;;;;;;;23.69;51.71;95565.91;5009656;28;20283;-73
2023/10/01 11:24:31;;;;;;;22.45;10.52;;;;;;;23.25;52.90;95568.22;4993144;28;20242;-73
2023/10/01 11:27:18;;;;;;;23.42;10.55;;;;;;;22.93;54.20;95562.19;5006147;28;20234;-73
2023/10/01 11:29:58;;;;;;;23.20;10.82;;;;;;;22.83;54.79;95556.84;5026634;28;20242;-73
2023/10/01 11:32:58;;;;;;;23.52;9.88;;;;;;;23.02;54.86;95562.50;5018588;28;20276;-73
2023/10/01 11:35:31;;;;;;;18.80;9.80;;;;;;;23.14;53.73;95557.75;5024307;28;20328;-73
2023/10/01 11:38:07;;;;;;;20.83;9.20;;;;;;;22.79;54.28;95553.88;5002426;28;20222;-73
2023/10/01 11:43:27;;;;;;;24.05;9.85;;;;;;;22.39;56.09;95568.81;5021983;28;20229;-71
2023/10/01 11:46:25;;;;;;;20.92;9.98;;;;;;;22.36;55.94;95556.78;5014060;28;20238;-72
2023/10/01 11:49:04;;;;;;;17.88;9.60;;;;;;;22.39;55.84;95550.94;5003322;28;20230;-73
2023/10/01 11:51:48;;;;;;;20.27;9.57;;;;;;;22.58;55.53;95543.31;5009443;28;20241;-72
2023/10/01 11:54:15;;;;;;;17.70;9.45;;;;;;;23.03;54.26;95556.09;5009518;28;20291;-72
2023/10/01 11:57:07;;;;;;;21.13;10.05;;;;;;;23.25;53.58;95540.69;5019568;28;20268;-73
2023/10/01 11:59:35;;;;;;;18.70;9.85;;;;;;;23.43;53.01;95538.34;5010296;28;20231;-72
2023/10/01 12:02:20;;;;;;;23.10;9.20;;;;;;;23.51;52.85;95542.38;5019761;28;20753;-77
2023/10/01 12:04:51;;;;;;;17.85;9.45;;;;;;;23.67;51.81;95538.66;5017148;28;20222;-78
2023/10/01 12:07:17;;;;;;;21.05;9.23;;;;;;;23.71;51.79;95538.94;5017411;28;20313;-76
2023/10/01 12:09:49;;;;;;;20.63;9.45;;;;;;;23.55;52.17;95548.00;5002533;28;20330;-80
2023/10/01 12:15:34;;;;;;;17.13;9.35;;;;;;;23.73;52.24;95550.16;4968995;28;20646;-77
2023/10/01 12:18:07;;;;;;;19.17;9.05;;;;;;;23.65;51.91;95545.31;5006691;28;20241;-75
2023/10/01 12:20:39;;;;;;;19.08;9.00;;;;;;;23.72;52.20;95541.31;5004536;28;20229;-78
2023/10/01 12:23:11;;;;;;;16.27;8.75;;;;;;;23.71;52.19;95550.44;5008953;28;20258;-77
2023/10/01 12:26:31;;;;;;;16.48;8.82;;;;;;;23.65;52.14;95546.13;4992464;28;20230;-77
2023/10/01 12:28:29;;;;;;;16.73;8.32;;;;;;;23.55;52.06;95532.75;5035715;28;20284;-78